sensor_id;sensor_type;location;lat;lon;timestamp;pressure;altitude;pressure_sealevel;temperature;humidity
21520;BME280;10921;53.614;9.882;2023-08-31T00:01:32;100254.88;;;16.40;90.73
21520;BME280;10921;53.614;9.882;2023-08-31T00:03:59;100196.19;;;16.08;90.67
21520;BME280;10921;53.614;9.882;2023-08-31T00:06:26;100247.81;;;16.39;90.61
21520;BME280;10921;53.614;9.882;2023-08-31T00:08:53;100212.59;;;16.13;90.54
21520;BME280;10921;53.614;9.882;2023-08-31T00:11:19;100245.69;;;16.35;90.38
21520;BME280;10921;53.614;9.882;2023-08-31T00:13:46;100249.22;;;16.35;90.27
21520;BME280;10921;53.614;9.882;2023-08-31T00:16:12;100173.44;;;15.89;89.92
21520;BME280;10921;53.614;9.882;2023-08-31T00:18:40;100227.38;;;16.24;89.84
21520;BME280;10921;53.614;9.882;2023-08-31T00:21:07;100240.66;;;16.25;89.78
21520;BME280;10921;53.614;9.882;2023-08-31T00:23:36;100246.88;;;16.26;89.71
21520;BME280;10921;53.614;9.882;2023-08-31T00:26:03;100245.22;;;16.25;89.59
21520;BME280;10921;53.614;9.882;2023-08-31T00:28:29;100241.03;;;16.22;89.64
21520;BME280;10921;53.614;9.882;2023-08-31T00:30:56;100253.22;;;16.18;89.15
21520;BME280;10921;53.614;9.882;2023-08-31T00:33:25;100246.38;;;16.15;89.15
21520;BME280;10921;53.614;9.882;2023-08-31T00:35:52;100241.47;;;16.04;89.02
21520;BME280;10921;53.614;9.882;2023-08-31T00:38:18;100235.31;;;15.89;89.03
21520;BME280;10921;53.614;9.882;2023-08-31T00:40:45;100197.66;;;15.68;89.18
21520;BME280;10921;53.614;9.882;2023-08-31T00:43:15;100250.44;;;15.90;89.70
21520;BME280;10921;53.614;9.882;2023-08-31T00:45:42;100250.38;;;15.83;89.52
21520;BME280;10921;53.614;9.882;2023-08-31T00:48:11;100218.34;;;15.53;89.81
21520;BME280;10921;53.614;9.882;2023-08-31T00:50:38;100222.78;;;15.45;90.02
21520;BME280;10921;53.614;9.882;2023-08-31T00:53:05;100264.59;;;15.63;90.92
21520;BME280;10921;53.614;9.882;2023-08-31T00:55:32;100272.66;;;15.63;91.12
21520;BME280;10921;53.614;9.882;2023-08-31T00:57:59;100238.47;;;15.42;91.19
21520;BME280;10921;53.614;9.882;2023-08-31T01:03:29;100270.63;;;15.50;92.04
21520;BME280;10921;53.614;9.882;2023-08-31T01:08:54;100258.19;;;15.49;92.69
21520;BME280;10921;53.614;9.882;2023-08-31T01:11:56;100254.22;;;15.45;92.42
21520;BME280;10921;53.614;9.882;2023-08-31T01:14:34;100250.97;;;15.35;92.28
21520;BME280;10921;53.614;9.882;2023-08-31T01:17:03;100271.00;;;15.32;91.45
21520;BME280;10921;53.614;9.882;2023-08-31T01:19:50;100269.50;;;15.30;92.66
21520;BME280;10921;53.614;9.882;2023-08-31T01:25:02;100274.88;;;15.15;92.26
21520;BME280;10921;53.614;9.882;2023-08-31T01:27:31;100261.00;;;14.97;92.54
21520;BME280;10921;53.614;9.882;2023-08-31T01:29:58;100255.81;;;14.95;92.51
21520;BME280;10921;53.614;9.882;2023-08-31T01:32:25;100273.69;;;15.03;92.71
21520;BME280;10921;53.614;9.882;2023-08-31T01:34:52;100278.41;;;15.01;93.12
21520;BME280;10921;53.614;9.882;2023-08-31T01:40:17;100278.41;;;15.01;93.99
21520;BME280;10921;53.614;9.882;2023-08-31T01:42:46;100278.69;;;14.91;93.65
21520;BME280;10921;53.614;9.882;2023-08-31T01:45:16;100279.34;;;14.93;93.55
21520;BME280;10921;53.614;9.882;2023-08-31T01:47:47;100280.34;;;14.92;93.26
21520;BME280;10921;53.614;9.882;2023-08-31T01:50:14;100269.00;;;14.82;93.11
21520;BME280;10921;53.614;9.882;2023-08-31T01:52:41;100289.59;;;14.90;92.83
21520;BME280;10921;53.614;9.882;2023-08-31T01:55:08;100242.06;;;14.61;92.79
21520;BME280;10921;53.614;9.882;2023-08-31T01:57:34;100285.59;;;14.86;92.71
21520;BME280;10921;53.614;9.882;2023-08-31T02:00:01;100280.97;;;14.80;93.03
21520;BME280;10921;53.614;9.882;2023-08-31T02:02:28;100272.16;;;14.71;93.08
21520;BME280;10921;53.614;9.882;2023-08-31T02:04:54;100282.72;;;14.72;92.80
21520;BME280;10921;53.614;9.882;2023-08-31T02:07:21;100276.59;;;14.64;92.80
21520;BME280;10921;53.614;9.882;2023-08-31T02:09:47;100294.94;;;14.75;92.70
21520;BME280;10921;53.614;9.882;2023-08-31T02:12:14;100289.94;;;14.72;92.57
21520;BME280;10921;53.614;9.882;2023-08-31T02:14:40;100283.47;;;14.66;92.84
21520;BME280;10921;53.614;9.882;2023-08-31T02:17:07;100287.34;;;14.64;92.55
21520;BME280;10921;53.614;9.882;2023-08-31T02:19:33;100288.53;;;14.61;92.47
21520;BME280;10921;53.614;9.882;2023-08-31T02:21:59;100271.63;;;14.53;92.81
21520;BME280;10921;53.614;9.882;2023-08-31T02:24:26;100278.22;;;14.50;92.58
21520;BME280;10921;53.614;9.882;2023-08-31T02:26:52;100210.94;;;14.06;92.53
21520;BME280;10921;53.614;9.882;2023-08-31T02:29:19;100273.75;;;14.42;92.55
21520;BME280;10921;53.614;9.882;2023-08-31T02:31:46;100284.66;;;14.41;92.91
21520;BME280;10921;53.614;9.882;2023-08-31T02:34:12;100288.34;;;14.40;92.69
21520;BME280;10921;53.614;9.882;2023-08-31T02:36:39;100280.44;;;14.38;92.89
21520;BME280;10921;53.614;9.882;2023-08-31T02:39:05;100272.81;;;14.27;93.02
21520;BME280;10921;53.614;9.882;2023-08-31T02:41:32;100218.47;;;13.88;92.77
21520;BME280;10921;53.614;9.882;2023-08-31T02:43:59;100280.22;;;14.25;92.95
21520;BME280;10921;53.614;9.882;2023-08-31T02:46:25;100286.66;;;14.16;93.09
21520;BME280;10921;53.614;9.882;2023-08-31T02:48:52;100269.84;;;13.99;93.16
21520;BME280;10921;53.614;9.882;2023-08-31T02:51:19;100309.31;;;14.14;93.46
21520;BME280;10921;53.614;9.882;2023-08-31T02:53:45;100306.13;;;14.10;93.63
21520;BME280;10921;53.614;9.882;2023-08-31T02:56:12;100315.53;;;14.06;93.74
21520;BME280;10921;53.614;9.882;2023-08-31T02:58:38;100310.38;;;14.04;94.16
21520;BME280;10921;53.614;9.882;2023-08-31T03:01:10;100294.84;;;13.92;94.71
21520;BME280;10921;53.614;9.882;2023-08-31T03:03:40;100265.81;;;13.72;94.54
21520;BME280;10921;53.614;9.882;2023-08-31T03:06:08;100307.75;;;13.96;94.65
21520;BME280;10921;53.614;9.882;2023-08-31T03:08:35;100313.00;;;13.90;95.29
21520;BME280;10921;53.614;9.882;2023-08-31T03:11:03;100307.31;;;13.85;95.49
21520;BME280;10921;53.614;9.882;2023-08-31T03:13:31;100271.19;;;13.64;95.36
21520;BME280;10921;53.614;9.882;2023-08-31T03:15:59;100287.59;;;13.69;95.21
21520;BME280;10921;53.614;9.882;2023-08-31T03:18:26;100310.50;;;13.80;95.27
21520;BME280;10921;53.614;9.882;2023-08-31T03:20:52;100299.94;;;13.79;95.31
21520;BME280;10921;53.614;9.882;2023-08-31T03:23:18;100311.69;;;13.78;95.79
21520;BME280;10921;53.614;9.882;2023-08-31T03:25:45;100298.66;;;13.75;95.89
21520;BME280;10921;53.614;9.882;2023-08-31T03:28:12;100298.16;;;13.71;96.31
21520;BME280;10921;53.614;9.882;2023-08-31T03:30:38;100294.47;;;13.72;96.49
21520;BME280;10921;53.614;9.882;2023-08-31T03:33:05;100295.66;;;13.69;96.44
21520;BME280;10921;53.614;9.882;2023-08-31T03:35:32;100305.38;;;13.70;96.53
21520;BME280;10921;53.614;9.882;2023-08-31T03:37:59;100292.47;;;13.66;96.14
21520;BME280;10921;53.614;9.882;2023-08-31T03:40:26;100294.50;;;13.64;96.17
21520;BME280;10921;53.614;9.882;2023-08-31T03:42:53;100302.19;;;13.67;95.92
21520;BME280;10921;53.614;9.882;2023-08-31T03:45:20;100295.50;;;13.63;95.86
21520;BME280;10921;53.614;9.882;2023-08-31T03:47:47;100258.94;;;13.39;95.67
21520;BME280;10921;53.614;9.882;2023-08-31T03:50:13;100309.44;;;13.58;95.93
21520;BME280;10921;53.614;9.882;2023-08-31T03:52:40;100299.72;;;13.57;95.86
21520;BME280;10921;53.614;9.882;2023-08-31T03:55:07;100296.56;;;13.54;95.40
21520;BME280;10921;53.614;9.882;2023-08-31T03:57:33;100308.78;;;13.56;95.58
21520;BME280;10921;53.614;9.882;2023-08-31T04:00:00;100291.75;;;13.41;95.48
21520;BME280;10921;53.614;9.882;2023-08-31T04:02:26;100291.59;;;13.34;95.40
21520;BME280;10921;53.614;9.882;2023-08-31T04:04:53;100312.13;;;13.50;95.43
21520;BME280;10921;53.614;9.882;2023-08-31T04:07:20;100321.19;;;13.49;95.42
21520;BME280;10921;53.614;9.882;2023-08-31T04:09:46;100316.66;;;13.50;95.38
21520;BME280;10921;53.614;9.882;2023-08-31T04:12:13;100315.81;;;13.49;95.09
21520;BME280;10921;53.614;9.882;2023-08-31T04:14:39;100316.16;;;13.46;94.97
21520;BME280;10921;53.614;9.882;2023-08-31T04:17:06;100311.19;;;13.43;94.70
21520;BME280;10921;53.614;9.882;2023-08-31T04:19:32;100289.78;;;13.27;94.64
21520;BME280;10921;53.614;9.882;2023-08-31T04:21:59;100266.03;;;13.08;95.06
21520;BME280;10921;53.614;9.882;2023-08-31T04:24:26;100313.53;;;13.38;94.79
21520;BME280;10921;53.614;9.882;2023-08-31T04:26:53;100317.72;;;13.41;94.76
21520;BME280;10921;53.614;9.882;2023-08-31T04:29:19;100320.56;;;13.39;94.87
21520;BME280;10921;53.614;9.882;2023-08-31T04:31:46;100316.38;;;13.36;95.06
21520;BME280;10921;53.614;9.882;2023-08-31T04:34:12;100322.41;;;13.38;95.14
21520;BME280;10921;53.614;9.882;2023-08-31T04:36:39;100332.13;;;13.40;94.95
21520;BME280;10921;53.614;9.882;2023-08-31T04:39:05;100332.94;;;13.40;94.91
21520;BME280;10921;53.614;9.882;2023-08-31T04:41:33;100305.03;;;13.26;94.81
21520;BME280;10921;53.614;9.882;2023-08-31T04:44:00;100291.16;;;13.07;94.69
21520;BME280;10921;53.614;9.882;2023-08-31T04:46:26;100313.75;;;13.20;94.79
21520;BME280;10921;53.614;9.882;2023-08-31T04:48:53;100341.50;;;13.35;94.59
21520;BME280;10921;53.614;9.882;2023-08-31T04:51:31;100356.41;;;13.38;95.95
21520;BME280;10921;53.614;9.882;2023-08-31T04:54:01;100324.78;;;13.17;94.84
21520;BME280;10921;53.614;9.882;2023-08-31T04:56:31;100358.91;;;13.40;94.91
21520;BME280;10921;53.614;9.882;2023-08-31T04:58:59;100365.13;;;13.32;94.68
21520;BME280;10921;53.614;9.882;2023-08-31T05:01:25;100369.13;;;13.36;95.28
21520;BME280;10921;53.614;9.882;2023-08-31T05:03:52;100363.44;;;13.39;95.27
21520;BME280;10921;53.614;9.882;2023-08-31T05:06:19;100362.13;;;13.27;95.24
21520;BME280;10921;53.614;9.882;2023-08-31T05:08:47;100379.19;;;13.42;94.79
21520;BME280;10921;53.614;9.882;2023-08-31T05:11:14;100382.69;;;13.43;94.77
21520;BME280;10921;53.614;9.882;2023-08-31T05:13:41;100373.31;;;13.38;94.76
21520;BME280;10921;53.614;9.882;2023-08-31T05:16:11;100392.03;;;13.47;94.88
21520;BME280;10921;53.614;9.882;2023-08-31T05:18:38;100345.88;;;13.20;94.48
21520;BME280;10921;53.614;9.882;2023-08-31T05:21:06;100384.19;;;13.45;94.87
21520;BME280;10921;53.614;9.882;2023-08-31T05:23:33;100379.19;;;13.42;94.44
21520;BME280;10921;53.614;9.882;2023-08-31T05:25:59;100320.94;;;13.03;94.24
21520;BME280;10921;53.614;9.882;2023-08-31T05:28:27;100354.44;;;13.24;94.31
21520;BME280;10921;53.614;9.882;2023-08-31T05:30:56;100403.09;;;13.52;94.50
21520;BME280;10921;53.614;9.882;2023-08-31T05:33:23;100410.63;;;13.56;94.49
21520;BME280;10921;53.614;9.882;2023-08-31T05:35:52;100407.41;;;13.61;94.16
21520;BME280;10921;53.614;9.882;2023-08-31T05:38:18;100407.41;;;13.61;94.16
21520;BME280;10921;53.614;9.882;2023-08-31T05:40:45;100406.97;;;13.57;94.31
21520;BME280;10921;53.614;9.882;2023-08-31T05:43:14;100393.38;;;13.51;94.38
21520;BME280;10921;53.614;9.882;2023-08-31T05:45:41;100410.31;;;13.59;94.33
21520;BME280;10921;53.614;9.882;2023-08-31T05:48:08;100424.19;;;13.71;94.38
21520;BME280;10921;53.614;9.882;2023-08-31T05:50:35;100404.91;;;13.67;94.02
21520;BME280;10921;53.614;9.882;2023-08-31T05:53:04;100420.78;;;13.77;93.89
21520;BME280;10921;53.614;9.882;2023-08-31T05:55:31;100411.56;;;13.80;93.76
21520;BME280;10921;53.614;9.882;2023-08-31T05:57:59;100409.88;;;13.87;93.08
21520;BME280;10921;53.614;9.882;2023-08-31T06:00:27;100413.22;;;13.89;93.05
21520;BME280;10921;53.614;9.882;2023-08-31T06:02:53;100428.59;;;13.95;92.54
21520;BME280;10921;53.614;9.882;2023-08-31T06:05:20;100423.75;;;13.98;92.27
21520;BME280;10921;53.614;9.882;2023-08-31T06:07:46;100424.06;;;14.03;92.48
21520;BME280;10921;53.614;9.882;2023-08-31T06:10:13;100396.13;;;13.90;92.02
21520;BME280;10921;53.614;9.882;2023-08-31T06:12:41;100395.94;;;13.91;91.75
21520;BME280;10921;53.614;9.882;2023-08-31T06:15:08;100434.56;;;14.13;91.83
21520;BME280;10921;53.614;9.882;2023-08-31T06:17:35;100418.81;;;14.18;91.44
21520;BME280;10921;53.614;9.882;2023-08-31T06:20:02;100430.00;;;14.22;91.14
21520;BME280;10921;53.614;9.882;2023-08-31T06:22:31;100431.31;;;14.26;90.82
21520;BME280;10921;53.614;9.882;2023-08-31T06:24:58;100440.72;;;14.30;89.82
21520;BME280;10921;53.614;9.882;2023-08-31T06:27:24;100436.66;;;14.34;89.93
21520;BME280;10921;53.614;9.882;2023-08-31T06:29:51;100433.63;;;14.37;89.41
21520;BME280;10921;53.614;9.882;2023-08-31T06:32:18;100434.97;;;14.41;88.94
21520;BME280;10921;53.614;9.882;2023-08-31T06:34:45;100421.91;;;14.30;88.55
21520;BME280;10921;53.614;9.882;2023-08-31T06:37:12;100433.13;;;14.41;88.29
21520;BME280;10921;53.614;9.882;2023-08-31T06:39:38;100436.06;;;14.55;88.32
21520;BME280;10921;53.614;9.882;2023-08-31T06:42:06;100434.03;;;14.57;88.01
21520;BME280;10921;53.614;9.882;2023-08-31T06:44:33;100407.78;;;14.44;87.79
21520;BME280;10921;53.614;9.882;2023-08-31T06:47:00;100405.41;;;14.49;87.87
21520;BME280;10921;53.614;9.882;2023-08-31T06:49:27;100438.06;;;14.84;87.80
21520;BME280;10921;53.614;9.882;2023-08-31T06:51:54;100437.66;;;14.95;87.16
21520;BME280;10921;53.614;9.882;2023-08-31T06:54:20;100396.75;;;14.85;85.76
21520;BME280;10921;53.614;9.882;2023-08-31T06:56:47;100435.81;;;15.33;84.24
21520;BME280;10921;53.614;9.882;2023-08-31T06:59:13;100441.00;;;15.57;82.49
21520;BME280;10921;53.614;9.882;2023-08-31T07:01:40;100439.16;;;15.72;81.73
21520;BME280;10921;53.614;9.882;2023-08-31T07:04:06;100411.59;;;15.70;81.09
21520;BME280;10921;53.614;9.882;2023-08-31T07:06:35;100427.75;;;16.00;79.56
21520;BME280;10921;53.614;9.882;2023-08-31T07:09:03;100447.41;;;16.15;77.83
21520;BME280;10921;53.614;9.882;2023-08-31T07:11:32;100454.72;;;16.21;77.23
21520;BME280;10921;53.614;9.882;2023-08-31T07:13:59;100397.38;;;15.91;77.37
21520;BME280;10921;53.614;9.882;2023-08-31T07:16:26;100455.00;;;16.26;76.55
21520;BME280;10921;53.614;9.882;2023-08-31T07:18:52;100455.28;;;16.31;76.69
21520;BME280;10921;53.614;9.882;2023-08-31T07:21:19;100444.94;;;16.35;75.53
21520;BME280;10921;53.614;9.882;2023-08-31T07:23:46;100452.09;;;16.42;75.91
21520;BME280;10921;53.614;9.882;2023-08-31T07:26:12;100451.53;;;16.47;75.93
21520;BME280;10921;53.614;9.882;2023-08-31T07:28:39;100418.13;;;16.27;74.69
21520;BME280;10921;53.614;9.882;2023-08-31T07:31:06;100442.34;;;16.41;75.51
21520;BME280;10921;53.614;9.882;2023-08-31T07:33:34;100446.03;;;16.55;74.30
21520;BME280;10921;53.614;9.882;2023-08-31T07:36:04;100445.84;;;16.57;74.52
21520;BME280;10921;53.614;9.882;2023-08-31T07:38:32;100428.19;;;16.54;73.79
21520;BME280;10921;53.614;9.882;2023-08-31T07:40:59;100416.56;;;16.53;73.26
21520;BME280;10921;53.614;9.882;2023-08-31T07:43:26;100421.03;;;16.61;73.01
21520;BME280;10921;53.614;9.882;2023-08-31T07:45:53;100426.91;;;16.86;72.42
21520;BME280;10921;53.614;9.882;2023-08-31T07:48:20;100450.97;;;17.09;71.20
21520;BME280;10921;53.614;9.882;2023-08-31T07:50:46;100449.22;;;17.22;71.62
21520;BME280;10921;53.614;9.882;2023-08-31T07:53:15;100419.19;;;17.04;70.46
21520;BME280;10921;53.614;9.882;2023-08-31T07:55:42;100452.38;;;17.26;70.21
21520;BME280;10921;53.614;9.882;2023-08-31T07:58:08;100448.69;;;17.34;70.33
21520;BME280;10921;53.614;9.882;2023-08-31T08:00:35;100423.41;;;17.13;70.47
21520;BME280;10921;53.614;9.882;2023-08-31T08:03:02;100448.69;;;17.34;71.20
21520;BME280;10921;53.614;9.882;2023-08-31T08:05:28;100380.53;;;16.91;71.05
21520;BME280;10921;53.614;9.882;2023-08-31T08:07:55;100459.13;;;17.43;70.68
21520;BME280;10921;53.614;9.882;2023-08-31T08:10:21;100459.59;;;17.47;70.50
21520;BME280;10921;53.614;9.882;2023-08-31T08:12:48;100448.88;;;17.53;70.05
21520;BME280;10921;53.614;9.882;2023-08-31T08:15:14;100414.22;;;17.29;69.52
21520;BME280;10921;53.614;9.882;2023-08-31T08:17:41;100426.56;;;17.45;69.72
21520;BME280;10921;53.614;9.882;2023-08-31T08:20:08;100457.09;;;17.73;69.29
21520;BME280;10921;53.614;9.882;2023-08-31T08:22:35;100464.44;;;17.79;69.53
21520;BME280;10921;53.614;9.882;2023-08-31T08:25:02;100456.78;;;17.83;69.36
21520;BME280;10921;53.614;9.882;2023-08-31T08:27:30;100454.75;;;17.91;68.47
21520;BME280;10921;53.614;9.882;2023-08-31T08:29:59;100430.22;;;17.86;69.54
21520;BME280;10921;53.614;9.882;2023-08-31T08:32:26;100412.16;;;17.87;68.07
21520;BME280;10921;53.614;9.882;2023-08-31T08:34:52;100451.97;;;18.13;67.24
21520;BME280;10921;53.614;9.882;2023-08-31T08:37:19;100466.41;;;18.33;66.66
21520;BME280;10921;53.614;9.882;2023-08-31T08:39:49;100425.78;;;18.13;65.77
21520;BME280;10921;53.614;9.882;2023-08-31T08:42:19;100452.25;;;18.31;66.56
21520;BME280;10921;53.614;9.882;2023-08-31T08:44:46;100464.34;;;18.42;67.76
21520;BME280;10921;53.614;9.882;2023-08-31T08:47:13;100455.66;;;18.46;69.00
21520;BME280;10921;53.614;9.882;2023-08-31T08:49:40;100430.03;;;18.29;66.27
21520;BME280;10921;53.614;9.882;2023-08-31T08:52:07;100469.66;;;18.63;67.08
21520;BME280;10921;53.614;9.882;2023-08-31T08:54:34;100463.44;;;18.63;64.84
21520;BME280;10921;53.614;9.882;2023-08-31T08:57:04;100433.41;;;18.44;64.89
21520;BME280;10921;53.614;9.882;2023-08-31T08:59:31;100477.50;;;18.58;64.32
21520;BME280;10921;53.614;9.882;2023-08-31T09:01:58;100481.84;;;18.52;64.65
21520;BME280;10921;53.614;9.882;2023-08-31T09:04:25;100491.81;;;18.45;64.77
21520;BME280;10921;53.614;9.882;2023-08-31T09:06:52;100480.13;;;18.38;65.53
21520;BME280;10921;53.614;9.882;2023-08-31T09:09:18;100474.50;;;18.33;65.58
21520;BME280;10921;53.614;9.882;2023-08-31T09:11:45;100473.16;;;18.16;65.31
21520;BME280;10921;53.614;9.882;2023-08-31T09:14:16;100483.00;;;18.30;66.82
21520;BME280;10921;53.614;9.882;2023-08-31T09:16:48;100484.94;;;18.43;67.08
21520;BME280;10921;53.614;9.882;2023-08-31T09:19:33;100482.75;;;18.59;64.82
21520;BME280;10921;53.614;9.882;2023-08-31T09:21:59;100488.66;;;18.96;66.26
21520;BME280;10921;53.614;9.882;2023-08-31T09:24:26;100491.81;;;19.26;64.98
21520;BME280;10921;53.614;9.882;2023-08-31T09:26:54;100491.47;;;19.55;63.27
21520;BME280;10921;53.614;9.882;2023-08-31T09:29:21;100472.50;;;19.62;61.97
21520;BME280;10921;53.614;9.882;2023-08-31T09:31:48;100488.72;;;19.88;60.87
21520;BME280;10921;53.614;9.882;2023-08-31T09:34:15;100450.25;;;19.66;59.95
21520;BME280;10921;53.614;9.882;2023-08-31T09:36:43;100494.34;;;19.93;60.31
21520;BME280;10921;53.614;9.882;2023-08-31T09:39:10;100484.59;;;19.86;61.59
21520;BME280;10921;53.614;9.882;2023-08-31T09:41:54;100504.53;;;20.05;60.92
21520;BME280;10921;53.614;9.882;2023-08-31T09:44:21;100505.41;;;19.85;59.51
21520;BME280;10921;53.614;9.882;2023-08-31T09:46:47;100501.84;;;19.91;59.85
21520;BME280;10921;53.614;9.882;2023-08-31T09:49:16;100491.41;;;19.88;59.12
21520;BME280;10921;53.614;9.882;2023-08-31T09:51:48;100494.56;;;19.98;59.52
21520;BME280;10921;53.614;9.882;2023-08-31T09:54:19;100487.47;;;19.91;59.85
21520;BME280;10921;53.614;9.882;2023-08-31T09:56:48;100493.91;;;20.03;60.70
21520;BME280;10921;53.614;9.882;2023-08-31T09:59:16;100463.72;;;19.86;59.29
21520;BME280;10921;53.614;9.882;2023-08-31T10:01:45;100498.06;;;20.12;59.38
21520;BME280;10921;53.614;9.882;2023-08-31T10:04:13;100481.59;;;20.07;59.17
21520;BME280;10921;53.614;9.882;2023-08-31T10:06:40;100483.72;;;19.98;58.85
21520;BME280;10921;53.614;9.882;2023-08-31T10:09:07;100494.53;;;20.05;59.09
21520;BME280;10921;53.614;9.882;2023-08-31T10:11:38;100491.22;;;19.96;59.03
21520;BME280;10921;53.614;9.882;2023-08-31T10:14:06;100471.03;;;19.79;59.88
21520;BME280;10921;53.614;9.882;2023-08-31T10:16:34;100474.16;;;19.76;59.25
21520;BME280;10921;53.614;9.882;2023-08-31T10:19:02;100481.25;;;19.84;59.21
21520;BME280;10921;53.614;9.882;2023-08-31T10:21:29;100481.84;;;19.92;59.05
21520;BME280;10921;53.614;9.882;2023-08-31T10:23:55;100503.88;;;20.16;59.18
21520;BME280;10921;53.614;9.882;2023-08-31T10:26:26;100503.63;;;20.37;59.90
21520;BME280;10921;53.614;9.882;2023-08-31T10:28:53;100427.03;;;20.03;57.44
21520;BME280;10921;53.614;9.882;2023-08-31T10:31:20;100468.53;;;20.55;57.35
21520;BME280;10921;53.614;9.882;2023-08-31T10:34:04;100498.09;;;21.08;56.60
21520;BME280;10921;53.614;9.882;2023-08-31T10:36:45;100472.38;;;21.11;55.22
21520;BME280;10921;53.614;9.882;2023-08-31T10:39:17;100438.22;;;21.34;55.02
21520;BME280;10921;53.614;9.882;2023-08-31T10:41:53;100484.34;;;21.84;53.99
21520;BME280;10921;53.614;9.882;2023-08-31T10:44:25;100480.41;;;22.05;53.37
21520;BME280;10921;53.614;9.882;2023-08-31T10:46:53;100439.81;;;21.85;51.64
21520;BME280;10921;53.614;9.882;2023-08-31T10:49:23;100503.06;;;22.35;51.17
21520;BME280;10921;53.614;9.882;2023-08-31T10:51:56;100498.38;;;22.42;52.08
21520;BME280;10921;53.614;9.882;2023-08-31T10:54:25;100498.44;;;22.36;49.37
21520;BME280;10921;53.614;9.882;2023-08-31T10:57:02;100488.50;;;22.30;49.22
21520;BME280;10921;53.614;9.882;2023-08-31T11:02:35;100500.09;;;22.55;51.02
21520;BME280;10921;53.614;9.882;2023-08-31T11:05:10;100481.53;;;22.52;50.74
21520;BME280;10921;53.614;9.882;2023-08-31T11:07:43;100497.44;;;22.67;51.08
21520;BME280;10921;53.614;9.882;2023-08-31T11:10:14;100506.28;;;22.80;49.42
21520;BME280;10921;53.614;9.882;2023-08-31T11:12:42;100497.84;;;23.00;48.26
21520;BME280;10921;53.614;9.882;2023-08-31T11:15:13;100497.19;;;23.17;48.23
21520;BME280;10921;53.614;9.882;2023-08-31T11:17:44;100501.63;;;23.41;47.33
21520;BME280;10921;53.614;9.882;2023-08-31T11:20:15;100491.38;;;23.55;47.35
21520;BME280;10921;53.614;9.882;2023-08-31T11:22:49;100473.34;;;23.42;45.55
21520;BME280;10921;53.614;9.882;2023-08-31T11:25:22;100492.09;;;23.62;45.56
21520;BME280;10921;53.614;9.882;2023-08-31T11:30:21;100462.41;;;23.19;46.81
21520;BME280;10921;53.614;9.882;2023-08-31T11:32:50;100501.16;;;23.44;46.90
21520;BME280;10921;53.614;9.882;2023-08-31T11:35:18;100491.47;;;23.36;45.93
21520;BME280;10921;53.614;9.882;2023-08-31T11:37:48;100509.50;;;23.61;46.05
21520;BME280;10921;53.614;9.882;2023-08-31T11:40:15;100503.97;;;23.67;46.43
21520;BME280;10921;53.614;9.882;2023-08-31T11:42:42;100457.03;;;23.54;46.68
21520;BME280;10921;53.614;9.882;2023-08-31T11:45:10;100514.03;;;24.02;44.75
21520;BME280;10921;53.614;9.882;2023-08-31T11:47:39;100511.75;;;24.45;45.26
21520;BME280;10921;53.614;9.882;2023-08-31T11:50:07;100504.66;;;24.33;44.83
21520;BME280;10921;53.614;9.882;2023-08-31T11:52:33;100507.03;;;24.41;44.63
21520;BME280;10921;53.614;9.882;2023-08-31T11:55:01;100446.13;;;24.00;44.27
21520;BME280;10921;53.614;9.882;2023-08-31T11:57:28;100523.16;;;24.42;43.80
21520;BME280;10921;53.614;9.882;2023-08-31T11:59:55;100523.38;;;24.41;43.47
21520;BME280;10921;53.614;9.882;2023-08-31T12:02:22;100475.38;;;24.16;44.40
21520;BME280;10921;53.614;9.882;2023-08-31T12:04:49;100494.44;;;24.16;42.22
21520;BME280;10921;53.614;9.882;2023-08-31T12:07:18;100524.56;;;24.22;43.58
21520;BME280;10921;53.614;9.882;2023-08-31T12:09:45;100538.78;;;24.00;43.66
21520;BME280;10921;53.614;9.882;2023-08-31T12:12:15;100542.09;;;23.79;43.74
21520;BME280;10921;53.614;9.882;2023-08-31T12:14:43;100518.94;;;23.46;44.17
21520;BME280;10921;53.614;9.882;2023-08-31T12:17:09;100541.19;;;23.43;44.24
21520;BME280;10921;53.614;9.882;2023-08-31T12:19:40;100537.91;;;23.23;44.52
21520;BME280;10921;53.614;9.882;2023-08-31T12:22:06;100541.88;;;23.09;44.82
21520;BME280;10921;53.614;9.882;2023-08-31T12:24:40;100540.44;;;22.76;46.42
21520;BME280;10921;53.614;9.882;2023-08-31T12:27:08;100567.47;;;22.53;44.00
21520;BME280;10921;53.614;9.882;2023-08-31T12:29:35;100574.38;;;22.13;43.92
21520;BME280;10921;53.614;9.882;2023-08-31T12:32:02;100585.16;;;21.69;44.38
21520;BME280;10921;53.614;9.882;2023-08-31T12:34:29;100585.03;;;21.26;47.00
21520;BME280;10921;53.614;9.882;2023-08-31T12:36:59;100573.78;;;20.65;46.99
21520;BME280;10921;53.614;9.882;2023-08-31T12:39:26;100590.34;;;20.37;48.93
21520;BME280;10921;53.614;9.882;2023-08-31T12:41:53;100583.72;;;20.00;50.73
21520;BME280;10921;53.614;9.882;2023-08-31T12:44:28;100587.84;;;19.63;52.59
21520;BME280;10921;53.614;9.882;2023-08-31T12:46:54;100554.03;;;19.19;52.89
21520;BME280;10921;53.614;9.882;2023-08-31T12:49:21;100583.56;;;19.14;55.87
21520;BME280;10921;53.614;9.882;2023-08-31T12:51:49;100574.81;;;19.06;57.52
21520;BME280;10921;53.614;9.882;2023-08-31T12:54:17;100584.16;;;19.03;56.55
21520;BME280;10921;53.614;9.882;2023-08-31T12:56:44;100580.66;;;19.16;57.68
21520;BME280;10921;53.614;9.882;2023-08-31T12:59:11;100580.72;;;19.36;57.23
21520;BME280;10921;53.614;9.882;2023-08-31T13:01:37;100587.84;;;19.56;53.81
21520;BME280;10921;53.614;9.882;2023-08-31T13:04:04;100568.50;;;19.86;53.23
21520;BME280;10921;53.614;9.882;2023-08-31T13:06:31;100573.25;;;20.30;52.48
21520;BME280;10921;53.614;9.882;2023-08-31T13:08:58;100566.31;;;20.60;51.63
21520;BME280;10921;53.614;9.882;2023-08-31T13:11:24;100575.94;;;21.01;51.14